createdAt,value
2019-01-13T00:01:53.417Z,94466.03
2019-01-13T00:04:22.881Z,94460.24
2019-01-13T00:06:52.356Z,94460.69
2019-01-13T00:09:23.226Z,94464.95
2019-01-13T00:11:52.981Z,94467.40
2019-01-13T00:14:22.456Z,94466.25
2019-01-13T00:16:51.938Z,94469.50
2019-01-13T00:19:21.433Z,94473.19
2019-01-13T00:21:50.888Z,94471.30
2019-01-13T00:24:20.377Z,94468.11
2019-01-13T00:26:49.832Z,94463.81
2019-01-13T00:29:19.348Z,94475.77
2019-01-13T00:31:48.844Z,94472.20
2019-01-13T00:34:18.330Z,94476.27
2019-01-13T00:36:47.788Z,94471.19
2019-01-13T00:39:17.298Z,94469.20
2019-01-13T00:41:46.783Z,94466.66
2019-01-13T00:44:16.267Z,94466.39
2019-01-13T00:46:45.808Z,94463.00
2019-01-13T00:49:15.313Z,94460.63
2019-01-13T00:51:44.765Z,94451.22
2019-01-13T00:54:14.284Z,94461.31
2019-01-13T00:56:43.802Z,94453.27
2019-01-13T00:59:13.309Z,94453.39
2019-01-13T01:01:42.790Z,94449.64
2019-01-13T01:04:12.474Z,94453.11
2019-01-13T01:06:41.967Z,94451.73
2019-01-13T01:09:11.496Z,94444.61
2019-01-13T01:11:41.064Z,94447.92
2019-01-13T01:14:10.614Z,94444.72
2019-01-13T01:16:40.068Z,94435.78
2019-01-13T01:19:09.591Z,94439.84
2019-01-13T01:21:39.073Z,94438.84
2019-01-13T01:24:08.561Z,94439.52
2019-01-13T01:26:38.073Z,94429.81
2019-01-13T01:29:07.597Z,94425.07
2019-01-13T01:31:37.133Z,94428.02
2019-01-13T01:34:06.614Z,94414.97
2019-01-13T01:36:36.138Z,94412.22
2019-01-13T01:39:07.705Z,94412.52
2019-01-13T01:41:37.236Z,94408.53
2019-01-13T01:44:06.709Z,94405.66
2019-01-13T01:46:36.251Z,94403.50
2019-01-13T01:49:05.755Z,94408.70
2019-01-13T01:51:35.223Z,94400.24
2019-01-13T01:54:04.748Z,94392.70
2019-01-13T01:56:34.237Z,94388.36
2019-01-13T01:59:05.640Z,94386.40
2019-01-13T02:01:35.117Z,94382.94
2019-01-13T02:04:04.587Z,94382.47
2019-01-13T02:06:34.081Z,94376.67
2019-01-13T02:09:05.402Z,94372.67
2019-01-13T02:11:34.869Z,94371.77
2019-01-13T02:14:04.466Z,94371.91
2019-01-13T02:16:33.951Z,94370.11
2019-01-13T02:19:03.420Z,94366.97
2019-01-13T02:21:32.895Z,94365.04
2019-01-13T02:24:02.339Z,94357.86
2019-01-13T02:26:31.807Z,94360.50
2019-01-13T02:29:01.346Z,94356.63
2019-01-13T02:31:30.825Z,94353.95
2019-01-13T02:34:00.287Z,94362.35
2019-01-13T02:36:29.864Z,94350.33
2019-01-13T02:38:59.357Z,94349.34
2019-01-13T02:41:29.855Z,94348.20
2019-01-13T02:43:59.395Z,94349.71
2019-01-13T02:46:29.018Z,94346.52
2019-01-13T02:48:58.532Z,94349.33
2019-01-13T02:51:28.435Z,94346.14
2019-01-13T02:53:58.132Z,94352.57
2019-01-13T02:56:27.598Z,94351.00
2019-01-13T02:58:57.151Z,94355.82
2019-01-13T03:01:26.611Z,94357.58
2019-01-13T03:03:56.061Z,94352.76
2019-01-13T03:06:25.594Z,94351.58
2019-01-13T03:08:55.088Z,94356.25
2019-01-13T03:11:24.595Z,94351.44
2019-01-13T03:13:54.041Z,94351.75
2019-01-13T03:16:23.506Z,94347.34
2019-01-13T03:18:53.029Z,94350.47
2019-01-13T03:21:22.513Z,94351.90
2019-01-13T03:23:51.999Z,94349.12
2019-01-13T03:26:21.492Z,94348.98
2019-01-13T03:28:50.969Z,94350.14
2019-01-13T03:31:20.466Z,94345.05
2019-01-13T03:33:49.903Z,94347.70
2019-01-13T03:36:19.393Z,94351.22
2019-01-13T03:38:48.879Z,94356.73
2019-01-13T03:41:18.399Z,94353.89
2019-01-13T03:43:47.862Z,94347.45
2019-01-13T03:46:17.340Z,94351.22
2019-01-13T03:48:46.759Z,94347.00
2019-01-13T03:51:16.208Z,94350.79
2019-01-13T03:53:45.652Z,94354.38
2019-01-13T03:56:15.490Z,94350.86
2019-01-13T03:58:45.000Z,94353.94
2019-01-13T04:01:18.740Z,94362.20
2019-01-13T04:03:45.743Z,94363.38
2019-01-13T04:06:15.247Z,94361.67
2019-01-13T04:08:44.724Z,94357.44
2019-01-13T04:11:14.199Z,94354.11
2019-01-13T04:13:43.783Z,94359.25
2019-01-13T04:16:13.232Z,94350.63
2019-01-13T04:18:42.722Z,94357.77
2019-01-13T04:21:12.195Z,94367.05
2019-01-13T04:23:41.701Z,94361.00
2019-01-13T04:26:11.186Z,94363.72
2019-01-13T04:28:40.652Z,94363.91
2019-01-13T04:31:10.129Z,94370.01
2019-01-13T04:33:39.562Z,94365.77
2019-01-13T04:36:09.034Z,94372.73
2019-01-13T04:38:38.476Z,94363.28
2019-01-13T04:41:07.954Z,94369.58
2019-01-13T04:43:37.488Z,94370.92
2019-01-13T04:46:06.976Z,94361.13
2019-01-13T04:48:36.422Z,94353.58
2019-01-13T04:51:05.903Z,94357.19
2019-01-13T04:53:35.469Z,94356.23
2019-01-13T04:56:05.027Z,94350.16
2019-01-13T04:58:34.498Z,94354.92
2019-01-13T05:01:04.004Z,94349.96
2019-01-13T05:03:33.490Z,94349.02
2019-01-13T05:06:03.002Z,94346.13
2019-01-13T05:08:32.490Z,94341.95
2019-01-13T05:11:02.000Z,94348.67
2019-01-13T05:13:31.516Z,94346.09
2019-01-13T05:16:01.027Z,94339.38
2019-01-13T05:18:30.493Z,94346.52
2019-01-13T05:20:59.946Z,94354.23
2019-01-13T05:23:29.449Z,94345.56
2019-01-13T05:25:58.937Z,94349.92
2019-01-13T05:28:28.424Z,94349.45
2019-01-13T05:30:57.924Z,94347.34
2019-01-13T05:33:27.414Z,94333.16
2019-01-13T05:35:56.878Z,94336.06
2019-01-13T05:38:26.322Z,94329.89
2019-01-13T05:40:55.785Z,94330.58
2019-01-13T05:43:25.267Z,94328.34
2019-01-13T05:45:54.736Z,94323.25
2019-01-13T05:48:24.650Z,94321.83
2019-01-13T05:50:54.157Z,94320.54
2019-01-13T05:53:23.653Z,94317.34
2019-01-13T05:55:54.144Z,94314.64
2019-01-13T05:58:23.707Z,94311.94
2019-01-13T06:00:53.214Z,94313.27
2019-01-13T06:03:22.717Z,94308.73
2019-01-13T06:05:52.244Z,94311.94
2019-01-13T06:08:21.739Z,94310.22
2019-01-13T06:10:51.234Z,94308.13
2019-01-13T06:13:20.734Z,94306.28
2019-01-13T06:15:50.195Z,94302.75
2019-01-13T06:18:19.676Z,94303.94
2019-01-13T06:20:49.342Z,94307.70
2019-01-13T06:23:18.820Z,94304.52
2019-01-13T06:25:48.319Z,94312.11
2019-01-13T06:28:17.861Z,94310.67
2019-01-13T06:30:47.485Z,94313.41
2019-01-13T06:33:17.014Z,94305.50
2019-01-13T06:35:46.546Z,94295.77
2019-01-13T06:38:16.078Z,94293.58
2019-01-13T06:40:45.566Z,94293.88
2019-01-13T06:43:14.997Z,94290.48
2019-01-13T06:45:44.517Z,94292.89
2019-01-13T06:48:13.999Z,94294.20
2019-01-13T06:50:43.525Z,94292.25
2019-01-13T06:53:13.018Z,94298.05
2019-01-13T06:55:42.548Z,94294.81
2019-01-13T06:58:12.057Z,94301.63
2019-01-13T07:00:41.572Z,94293.47
2019-01-13T07:03:11.042Z,94295.16
2019-01-13T07:05:40.551Z,94289.77
2019-01-13T07:08:10.043Z,94287.17
2019-01-13T07:10:39.522Z,94292.82
2019-01-13T07:13:09.123Z,94290.86
2019-01-13T07:15:38.862Z,94288.94
2019-01-13T07:18:09.698Z,94276.94
2019-01-13T07:20:39.300Z,94287.11
2019-01-13T07:23:09.085Z,94282.24
2019-01-13T07:25:38.553Z,94284.53
2019-01-13T07:28:50.863Z,94277.09
2019-01-13T07:31:20.459Z,94281.92
2019-01-13T07:33:50.814Z,94284.30
2019-01-13T07:36:20.535Z,94291.47
2019-01-13T07:38:50.066Z,94290.72
2019-01-13T07:41:19.530Z,94295.39
2019-01-13T07:43:48.992Z,94295.74
2019-01-13T07:46:18.615Z,94305.48
2019-01-13T07:48:48.090Z,94303.22
2019-01-13T07:51:17.632Z,94306.13
2019-01-13T07:53:47.142Z,94310.71
2019-01-13T07:56:16.717Z,94309.75
2019-01-13T07:58:46.261Z,94311.68
2019-01-13T08:01:15.750Z,94319.86
2019-01-13T08:03:45.274Z,94311.24
2019-01-13T08:06:14.817Z,94318.97
2019-01-13T08:08:44.340Z,94320.59
2019-01-13T08:11:14.032Z,94327.36
2019-01-13T08:13:43.504Z,94331.16
2019-01-13T08:16:13.039Z,94330.94
2019-01-13T08:18:46.020Z,94329.28
2019-01-13T08:21:15.779Z,94333.17
2019-01-13T08:23:45.314Z,94338.66
2019-01-13T08:26:14.836Z,94337.11
2019-01-13T08:28:44.414Z,94334.59
2019-01-13T08:31:14.053Z,94325.85
2019-01-13T08:33:43.619Z,94324.19
2019-01-13T08:36:13.216Z,94327.73
2019-01-13T08:38:42.666Z,94326.08
2019-01-13T08:41:12.263Z,94327.47
2019-01-13T08:43:41.815Z,94317.69
2019-01-13T08:46:11.428Z,94314.20
2019-01-13T08:48:40.962Z,94309.77
2019-01-13T08:51:10.520Z,94303.02
2019-01-13T08:53:40.111Z,94303.06
2019-01-13T08:56:09.938Z,94293.97
2019-01-13T08:58:39.521Z,94291.49
2019-01-13T09:01:09.303Z,94283.76
2019-01-13T09:03:39.376Z,94279.59
2019-01-13T09:06:09.211Z,94268.64
2019-01-13T09:08:38.793Z,94272.21
2019-01-13T09:11:08.457Z,94265.97
2019-01-13T09:13:38.346Z,94259.69
2019-01-13T09:16:08.006Z,94255.64
2019-01-13T09:18:37.591Z,94253.87
2019-01-13T09:21:07.602Z,94249.08
2019-01-13T09:23:37.333Z,94239.42
2019-01-13T09:26:06.799Z,94234.31
2019-01-13T09:28:36.279Z,94234.94
2019-01-13T09:31:05.775Z,94228.33
2019-01-13T09:33:35.342Z,94224.31
2019-01-13T09:36:04.891Z,94214.42
2019-01-13T09:38:34.449Z,94212.80
2019-01-13T09:41:03.976Z,94203.09
2019-01-13T09:43:33.516Z,94200.63
2019-01-13T09:46:03.110Z,94194.94
2019-01-13T09:48:32.607Z,94190.22
2019-01-13T09:51:02.203Z,94191.95
2019-01-13T09:53:31.756Z,94191.23
2019-01-13T09:56:01.349Z,94183.45
2019-01-13T09:58:31.075Z,94175.17
2019-01-13T10:01:00.672Z,94170.88
2019-01-13T10:03:30.130Z,94167.97
2019-01-13T10:05:59.686Z,94154.44
2019-01-13T10:08:29.231Z,94157.99
2019-01-13T10:10:58.817Z,94153.30
2019-01-13T10:13:28.367Z,94160.53
2019-01-13T10:15:57.900Z,94161.51
2019-01-13T10:18:27.418Z,94160.81
2019-01-13T10:20:56.884Z,94158.70
2019-01-13T10:23:26.462Z,94159.48
2019-01-13T10:25:55.939Z,94149.26
2019-01-13T10:28:25.566Z,94148.44
2019-01-13T10:30:55.321Z,94154.55
2019-01-13T10:33:24.902Z,94141.56
2019-01-13T10:35:54.425Z,94142.52
2019-01-13T10:38:23.958Z,94132.37
2019-01-13T10:40:54.885Z,94130.34
2019-01-13T10:43:24.526Z,94132.92
2019-01-13T10:45:53.994Z,94128.87
2019-01-13T10:48:23.654Z,94125.62
2019-01-13T10:50:53.211Z,94123.47
2019-01-13T10:53:22.764Z,94111.23
2019-01-13T10:55:52.401Z,94106.84
2019-01-13T10:58:21.941Z,94097.23
2019-01-13T11:00:51.485Z,94096.47
2019-01-13T11:03:21.027Z,94095.36
2019-01-13T11:05:50.513Z,94098.42
2019-01-13T11:08:20.012Z,94090.98
2019-01-13T11:10:49.670Z,94084.33
2019-01-13T11:13:19.218Z,94086.86
2019-01-13T11:15:48.885Z,94080.06
2019-01-13T11:18:18.426Z,94080.22
2019-01-13T11:20:47.937Z,94090.66
2019-01-13T11:23:17.457Z,94078.45
2019-01-13T11:25:47.094Z,94081.27
2019-01-13T11:28:16.657Z,94082.42
2019-01-13T11:30:49.348Z,94085.33
2019-01-13T11:33:18.974Z,94079.59
2019-01-13T11:35:48.582Z,94087.37
2019-01-13T11:38:18.179Z,94091.19
2019-01-13T11:40:50.897Z,94091.53
2019-01-13T11:43:20.417Z,94080.16
2019-01-13T11:45:50.904Z,94089.28
2019-01-13T11:48:20.491Z,94082.65
2019-01-13T11:50:50.065Z,94084.69
2019-01-13T11:53:19.697Z,94093.09
2019-01-13T11:55:49.177Z,94097.20
2019-01-13T11:58:18.777Z,94089.77
2019-01-13T12:00:49.778Z,94097.29
2019-01-13T12:03:19.365Z,94098.11
2019-01-13T12:05:48.840Z,94092.36
2019-01-13T12:08:18.368Z,94093.55
2019-01-13T12:10:48.087Z,94089.83
2019-01-13T12:13:17.583Z,94101.00
2019-01-13T12:15:47.021Z,94092.46
2019-01-13T12:18:16.733Z,94094.41
2019-01-13T12:20:46.368Z,94096.36
2019-01-13T12:23:16.106Z,94088.48
2019-01-13T12:25:52.362Z,94089.33
2019-01-13T12:28:17.549Z,94089.92
2019-01-13T12:30:47.054Z,94089.23
2019-01-13T12:33:24.293Z,94080.94
2019-01-13T12:35:48.281Z,94085.72
2019-01-13T12:38:17.862Z,94084.98
2019-01-13T12:40:47.357Z,94077.30
2019-01-13T12:43:16.981Z,94076.94
2019-01-13T12:45:46.707Z,94079.43
2019-01-13T12:48:16.363Z,94077.09
2019-01-13T12:50:45.905Z,94074.03
2019-01-13T12:53:15.490Z,94066.22
2019-01-13T12:55:45.145Z,94062.96
2019-01-13T12:58:14.677Z,94059.89
2019-01-13T13:00:44.378Z,94054.98
2019-01-13T13:03:20.288Z,94052.73
2019-01-13T13:05:49.993Z,94054.30
2019-01-13T13:08:19.594Z,94054.83
2019-01-13T13:10:51.968Z,94047.78
2019-01-13T13:13:21.518Z,94045.33
2019-01-13T13:15:51.010Z,94041.61
2019-01-13T13:18:20.518Z,94040.06
2019-01-13T13:20:50.042Z,94034.55
2019-01-13T13:23:20.069Z,94039.53
2019-01-13T13:25:49.645Z,94037.08
2019-01-13T13:28:20.052Z,94031.85
2019-01-13T13:30:56.193Z,94029.25
2019-01-13T13:33:25.981Z,94018.97
2019-01-13T13:35:56.113Z,94013.20
2019-01-13T13:38:26.398Z,94011.84
2019-01-13T13:40:56.061Z,94014.92
2019-01-13T13:43:32.024Z,94010.88
2019-01-13T13:46:03.439Z,94008.72
2019-01-13T13:48:33.061Z,94007.73
2019-01-13T13:51:02.696Z,94002.33
2019-01-13T13:53:38.516Z,93995.98
2019-01-13T13:56:08.044Z,93992.75
2019-01-13T13:58:37.801Z,94000.21
2019-01-13T14:01:07.453Z,94009.75
2019-01-13T14:03:37.001Z,94003.77
2019-01-13T14:06:06.508Z,94014.73
2019-01-13T14:08:36.043Z,94010.75
2019-01-13T14:11:05.725Z,94002.87
2019-01-13T14:13:35.372Z,94011.48
2019-01-13T14:16:04.988Z,94003.94
2019-01-13T14:18:34.523Z,94001.08
2019-01-13T14:21:03.972Z,93999.83
2019-01-13T14:23:33.557Z,94002.25
2019-01-13T14:26:03.145Z,94000.31
2019-01-13T14:28:32.646Z,94003.42
2019-01-13T14:31:02.173Z,94003.78
2019-01-13T14:33:31.739Z,94009.77
2019-01-13T14:36:01.446Z,93997.77
2019-01-13T14:38:31.019Z,94005.16
2019-01-13T14:41:00.597Z,94002.58
2019-01-13T14:43:30.085Z,94004.07
2019-01-13T14:45:59.615Z,93998.06
2019-01-13T14:48:29.142Z,93992.12
2019-01-13T14:50:58.661Z,93988.08
2019-01-13T14:53:28.197Z,93992.24
2019-01-13T14:55:57.715Z,93988.77
2019-01-13T14:58:27.223Z,93991.38
2019-01-13T15:00:56.823Z,93982.66
2019-01-13T15:03:26.341Z,93987.02
2019-01-13T15:05:56.151Z,93980.23
2019-01-13T15:08:25.698Z,93985.73
2019-01-13T15:10:55.176Z,93987.34
2019-01-13T15:13:24.640Z,93985.58
2019-01-13T15:15:54.137Z,93989.61
2019-01-13T15:18:23.634Z,93981.21
2019-01-13T15:20:53.145Z,93984.28
2019-01-13T15:23:22.713Z,93986.22
2019-01-13T15:25:52.220Z,93986.50
2019-01-13T15:28:21.908Z,93985.09
2019-01-13T15:30:51.379Z,93980.24
2019-01-13T15:33:20.875Z,93980.08
2019-01-13T15:35:50.427Z,93979.56
2019-01-13T15:38:19.896Z,93978.30
2019-01-13T15:40:49.472Z,93977.50
2019-01-13T15:43:19.170Z,93981.70
2019-01-13T15:45:48.714Z,93973.91
2019-01-13T15:48:18.553Z,93977.94
2019-01-13T15:50:48.163Z,93978.71
2019-01-13T15:53:17.698Z,93976.77
2019-01-13T15:55:47.508Z,93982.91
2019-01-13T15:58:17.056Z,93982.42
2019-01-13T16:00:46.615Z,93990.66
2019-01-13T16:03:16.099Z,93984.81
2019-01-13T16:05:47.669Z,93981.73
2019-01-13T16:08:17.226Z,93979.64
2019-01-13T16:10:46.704Z,93975.80
2019-01-13T16:13:16.202Z,93981.61
2019-01-13T16:15:45.690Z,93980.13
2019-01-13T16:18:15.174Z,93977.70
2019-01-13T16:20:44.726Z,93971.87
2019-01-13T16:23:14.339Z,93972.80
2019-01-13T16:25:44.502Z,93971.83
2019-01-13T16:28:14.021Z,93971.99
2019-01-13T16:30:43.510Z,93978.63
2019-01-13T16:33:13.054Z,93976.40
2019-01-13T16:35:43.114Z,93979.11
2019-01-13T16:38:15.778Z,93976.73
2019-01-13T16:40:45.484Z,93976.08
2019-01-13T16:43:15.236Z,93969.50
2019-01-13T16:45:45.133Z,93967.28
2019-01-13T16:48:16.270Z,93965.09
2019-01-13T16:50:45.961Z,93961.70
2019-01-13T16:53:15.637Z,93958.79
2019-01-13T16:55:45.200Z,93957.98
2019-01-13T16:58:15.037Z,93960.24
2019-01-13T17:00:44.479Z,93950.23
2019-01-13T17:03:13.992Z,93953.87
2019-01-13T17:05:43.765Z,93948.70
2019-01-13T17:08:13.593Z,93945.64
2019-01-13T17:10:43.085Z,93945.15
2019-01-13T17:13:12.721Z,93941.39
2019-01-13T17:15:42.395Z,93944.09
2019-01-13T17:18:12.123Z,93941.66
2019-01-13T17:20:41.941Z,93944.69
2019-01-13T17:23:11.468Z,93946.78
2019-01-13T17:25:43.213Z,93950.45
2019-01-13T17:28:12.753Z,93947.59
2019-01-13T17:30:42.501Z,93951.19
2019-01-13T17:33:12.343Z,93956.37
2019-01-13T17:35:42.179Z,93950.88
2019-01-13T17:38:11.767Z,93948.61
2019-01-13T17:40:41.432Z,93941.50
2019-01-13T17:43:11.048Z,93940.69
2019-01-13T17:45:40.620Z,93948.30
2019-01-13T17:48:10.550Z,93941.22
2019-01-13T17:50:40.122Z,93936.86
2019-01-13T17:53:10.776Z,93939.41
2019-01-13T17:55:40.305Z,93935.52
2019-01-13T17:58:10.879Z,93935.46
2019-01-13T18:01:29.194Z,93935.78
2019-01-13T18:03:58.700Z,93938.48
2019-01-13T18:06:28.214Z,93934.02
2019-01-13T18:08:57.705Z,93936.28
2019-01-13T18:11:27.322Z,93932.13
2019-01-13T18:13:56.810Z,93934.39
2019-01-13T18:16:26.360Z,93936.33
2019-01-13T18:18:55.908Z,93931.48
2019-01-13T18:21:25.448Z,93928.57
2019-01-13T18:23:54.936Z,93931.64
2019-01-13T18:26:24.403Z,93929.43
2019-01-13T18:28:53.949Z,93926.05
2019-01-13T18:31:23.462Z,93921.20
2019-01-13T18:33:53.090Z,93922.81
2019-01-13T18:36:23.040Z,93917.20
2019-01-13T18:38:52.579Z,93919.63
2019-01-13T18:41:22.086Z,93915.26
2019-01-13T18:43:51.668Z,93912.95
2019-01-13T18:46:21.156Z,93915.81
2019-01-13T18:48:50.651Z,93911.00
2019-01-13T18:51:22.195Z,93911.81
2019-01-13T18:53:51.376Z,93915.90
2019-01-13T18:56:20.898Z,93916.67
2019-01-13T18:58:50.546Z,93909.72
2019-01-13T19:01:20.590Z,93912.16
2019-01-13T19:03:50.215Z,93913.44
2019-01-13T19:06:19.739Z,93916.19
2019-01-13T19:08:49.231Z,93911.83
2019-01-13T19:11:31.176Z,93911.81
2019-01-13T19:14:11.161Z,93909.66
2019-01-13T19:16:53.544Z,93907.19
2019-01-13T19:19:23.037Z,93908.75
2019-01-13T19:21:52.528Z,93901.95
2019-01-13T19:24:22.100Z,93886.75
2019-01-13T19:26:51.580Z,93888.70
2019-01-13T19:29:21.092Z,93887.08
2019-01-13T19:31:50.589Z,93883.59
2019-01-13T19:34:20.095Z,93878.69
2019-01-13T19:36:49.702Z,93883.23
2019-01-13T19:39:19.451Z,93877.58
2019-01-13T19:41:51.267Z,93874.55
2019-01-13T19:44:20.717Z,93875.36
2019-01-13T19:46:52.180Z,93873.95
2019-01-13T19:49:24.517Z,93874.17
2019-01-13T19:51:54.189Z,93862.80
2019-01-13T19:54:23.714Z,93861.67
2019-01-13T19:56:53.475Z,93852.52
2019-01-13T19:59:22.969Z,93863.33
2019-01-13T20:01:53.948Z,93858.81
2019-01-13T20:04:24.747Z,93860.26
2019-01-13T20:06:54.444Z,93851.06
2019-01-13T20:09:23.995Z,93855.95
2019-01-13T20:11:53.656Z,93858.08
2019-01-13T20:14:23.261Z,93850.82
2019-01-13T20:16:53.146Z,93854.38
2019-01-13T20:19:22.863Z,93843.88
2019-01-13T20:21:52.405Z,93841.30
2019-01-13T20:24:22.034Z,93836.66
2019-01-13T20:26:51.571Z,93837.34
2019-01-13T20:29:21.162Z,93831.40
2019-01-13T20:31:50.919Z,93833.98
2019-01-13T20:34:20.456Z,93826.91
2019-01-13T20:36:49.931Z,93829.01
2019-01-13T20:39:19.428Z,93823.36
2019-01-13T20:41:48.923Z,93829.20
2019-01-13T20:44:18.394Z,93833.09
2019-01-13T20:46:47.881Z,93817.15
2019-01-13T20:49:17.444Z,93814.86
2019-01-13T20:51:46.949Z,93810.06
2019-01-13T20:54:16.964Z,93815.69
2019-01-13T20:56:46.492Z,93814.27
2019-01-13T20:59:15.953Z,93810.39
2019-01-13T21:01:45.412Z,93808.16
2019-01-13T21:04:14.838Z,93801.37
2019-01-13T21:06:44.337Z,93797.17
2019-01-13T21:09:13.880Z,93797.84
2019-01-13T21:11:43.352Z,93801.06
2019-01-13T21:14:12.857Z,93793.35
2019-01-13T21:16:42.374Z,93787.22
2019-01-13T21:19:11.938Z,93778.69
2019-01-13T21:21:41.451Z,93777.53
2019-01-13T21:24:10.948Z,93771.41
2019-01-13T21:26:40.422Z,93773.83
2019-01-13T21:29:09.887Z,93766.92
2019-01-13T21:31:39.377Z,93759.98
2019-01-13T21:34:08.933Z,93758.22
2019-01-13T21:36:38.408Z,93759.50
2019-01-13T21:39:09.574Z,93758.22
2019-01-13T21:41:39.022Z,93761.13
2019-01-13T21:44:08.523Z,93746.11
2019-01-13T21:46:38.014Z,93750.79
2019-01-13T21:49:07.533Z,93742.41
2019-01-13T21:51:36.995Z,93733.05
2019-01-13T21:54:10.895Z,93721.00
2019-01-13T21:56:37.788Z,93718.63
2019-01-13T21:59:07.279Z,93718.15
2019-01-13T22:01:36.755Z,93722.81
2019-01-13T22:04:06.473Z,93721.23
2019-01-13T22:06:35.977Z,93717.05
2019-01-13T22:09:10.836Z,93718.97
2019-01-13T22:11:40.306Z,93712.06
2019-01-13T22:14:09.806Z,93702.24
2019-01-13T22:16:39.287Z,93699.66
2019-01-13T22:19:08.901Z,93692.29
2019-01-13T22:21:38.439Z,93683.44
2019-01-13T22:24:07.987Z,93684.22
2019-01-13T22:26:37.459Z,93667.81
2019-01-13T22:29:06.941Z,93665.88
2019-01-13T22:31:36.517Z,93673.92
2019-01-13T22:34:06.021Z,93675.22
2019-01-13T22:36:35.518Z,93669.42
2019-01-13T22:39:08.120Z,93660.10
2019-01-13T22:41:37.645Z,93660.42
2019-01-13T22:44:07.126Z,93655.29
2019-01-13T22:46:36.608Z,93652.87
2019-01-13T22:49:07.164Z,93643.70
2019-01-13T22:51:36.646Z,93638.71
2019-01-13T22:54:06.122Z,93630.20
2019-01-13T22:56:35.618Z,93628.26
2019-01-13T22:59:05.119Z,93633.56
2019-01-13T23:01:39.633Z,93627.80
2019-01-13T23:04:13.890Z,93630.85
2019-01-13T23:06:43.460Z,93638.23
2019-01-13T23:09:13.595Z,93623.12
2019-01-13T23:11:43.058Z,93626.82
2019-01-13T23:14:12.539Z,93614.92
2019-01-13T23:16:42.304Z,93614.59
2019-01-13T23:19:11.796Z,93611.05
2019-01-13T23:21:41.334Z,93613.64
2019-01-13T23:24:10.855Z,93612.52
2019-01-13T23:26:40.345Z,93607.36
2019-01-13T23:29:09.783Z,93600.77
2019-01-13T23:31:39.251Z,93597.23
2019-01-13T23:34:08.746Z,93596.12
2019-01-13T23:36:38.222Z,93599.47
2019-01-13T23:39:09.103Z,93590.33
2019-01-13T23:41:38.574Z,93587.75
2019-01-13T23:44:08.084Z,93591.59
2019-01-13T23:46:37.572Z,93595.91
2019-01-13T23:49:07.523Z,93593.67
2019-01-13T23:51:37.029Z,93590.61
2019-01-13T23:54:06.530Z,93590.94
2019-01-13T23:56:35.995Z,93591.58
2019-01-13T23:59:05.510Z,93589.49
